Time;durP1;ratioP1;P1;durP2;ratioP2;P2;SDS_P1;SDS_P2;PMS_P1;PMS_P2;Temp;Humidity;BMP_temperature;BMP_pressure;BME280_temperature;BME280_humidity;BME280_pressure;Samples;Min_cycle;Max_cycle;Signal;HPM_P1;HPM_P2
2023/04/26 00:00:17;;;;;;;0.22;0.22;;;;;;;8.06;78.84;100674.78;5111116;28;20027;-70
2023/04/26 00:02:43;;;;;;;0.20;0.20;;;;;;;8.17;79.04;100670.53;5108306;28;20031;-69
2023/04/26 00:05:08;;;;;;;1.08;0.20;;;;;;;8.08;79.71;100672.56;5103959;27;20047;-69
2023/04/26 00:07:34;;;;;;;0.30;0.30;;;;;;;8.13;79.74;100663.47;5107927;28;20028;-69
2023/04/26 00:10:00;;;;;;;0.32;0.32;;;;;;;8.12;79.91;100675.34;5111116;28;20394;-69
2023/04/26 00:12:26;;;;;;;0.20;0.20;;;;;;;8.23;79.73;100663.81;5103455;28;20516;-69
2023/04/26 00:14:51;;;;;;;0.90;0.57;;;;;;;8.22;79.49;100664.16;5099491;28;20028;-69
2023/04/26 00:17:17;;;;;;;0.20;0.20;;;;;;;8.17;79.70;100665.16;5104592;28;20035;-70
2023/04/26 00:19:42;;;;;;;0.70;0.52;;;;;;;8.15;79.91;100662.03;5109865;28;20157;-68
2023/04/26 00:22:08;;;;;;;0.20;0.20;;;;;;;8.03;80.33;100669.31;5092801;28;20043;-70
2023/04/26 00:24:33;;;;;;;0.35;0.35;;;;;;;8.12;79.54;100670.75;5108137;28;20043;-69
2023/04/26 00:27:00;;;;;;;0.40;0.40;;;;;;;8.01;79.57;100677.69;5109686;28;20576;-69
2023/04/26 00:29:26;;;;;;;0.40;0.40;;;;;;;7.87;80.14;100674.59;5110166;28;20104;-69
2023/04/26 00:31:51;;;;;;;0.50;0.50;;;;;;;8.00;80.12;100678.03;5103285;28;20080;-70
2023/04/26 00:34:17;;;;;;;4.30;0.40;;;;;;;7.92;80.43;100679.72;5109283;28;20032;-69
2023/04/26 00:36:42;;;;;;;0.20;0.20;;;;;;;7.91;80.29;100675.47;5089299;28;20096;-70
2023/04/26 00:39:09;;;;;;;0.22;0.22;;;;;;;7.85;80.53;100678.72;5109113;28;20032;-68
2023/04/26 00:41:34;;;;;;;1.27;0.22;;;;;;;7.79;81.15;100677.38;5092362;28;20046;-69
2023/04/26 00:44:00;;;;;;;0.40;0.40;;;;;;;7.78;81.26;100689.22;5073278;22;20041;-66
2023/04/26 00:46:27;;;;;;;0.43;0.32;;;;;;;7.82;80.72;100682.06;5056185;28;20086;-65
2023/04/26 00:48:53;;;;;;;0.50;0.32;;;;;;;7.81;80.72;100672.44;5050450;28;20025;-67
2023/04/26 00:51:19;;;;;;;0.40;0.40;;;;;;;7.84;80.22;100663.75;5049043;28;20436;-67
2023/04/26 00:53:45;;;;;;;0.40;0.40;;;;;;;7.88;79.80;100668.09;5034590;28;20033;-67
2023/04/26 00:56:15;;;;;;;0.17;0.17;;;;;;;7.81;79.77;100670.56;5048317;28;20082;-67
2023/04/26 00:58:40;;;;;;;0.20;0.20;;;;;;;7.78;79.96;100675.81;5049284;28;20120;-67
2023/04/26 01:01:09;;;;;;;0.30;0.30;;;;;;;7.75;80.10;100676.47;5042176;28;20155;-64
2023/04/26 01:03:35;;;;;;;0.30;0.30;;;;;;;7.66;80.19;100683.84;5053972;28;20374;-66
2023/04/26 01:06:01;;;;;;;1.67;0.70;;;;;;;7.67;80.53;100680.03;5049028;28;20083;-66
2023/04/26 01:08:27;;;;;;;0.20;0.20;;;;;;;7.77;80.39;100682.28;5047286;28;20040;-66
2023/04/26 01:10:53;;;;;;;0.10;0.10;;;;;;;7.81;79.95;100683.97;5033425;28;20051;-65
2023/04/26 01:13:19;;;;;;;0.40;0.40;;;;;;;7.82;79.92;100687.44;5053175;28;20032;-66
2023/04/26 01:15:47;;;;;;;12.77;0.75;;;;;;;7.88;79.55;100678.03;5048778;28;20013;-66
2023/04/26 01:18:13;;;;;;;5.82;0.68;;;;;;;7.88;79.32;100680.72;5057971;28;20021;-66
2023/04/26 01:20:40;;;;;;;0.17;0.17;;;;;;;7.81;79.61;100683.19;5051441;28;20021;-66
2023/04/26 01:23:07;;;;;;;0.75;0.28;;;;;;;7.72;79.97;100688.66;5050343;28;20037;-66
2023/04/26 01:25:33;;;;;;;0.40;0.40;;;;;;;7.69;80.11;100702.72;5048532;28;20021;-65
2023/04/26 01:28:00;;;;;;;0.30;0.30;;;;;;;7.73;80.48;100686.75;5052270;28;20386;-67
2023/04/26 01:30:25;;;;;;;0.17;0.17;;;;;;;7.62;81.21;100690.97;5052383;28;20036;-66
2023/04/26 01:32:51;;;;;;;0.25;0.25;;;;;;;7.57;81.03;100691.22;5046737;28;20040;-65
2023/04/26 01:35:16;;;;;;;0.35;0.35;;;;;;;7.58;81.47;100693.56;5059729;28;20143;-67
2023/04/26 01:37:44;;;;;;;0.35;0.35;;;;;;;7.64;80.99;100699.47;5035951;28;20183;-66
2023/04/26 01:40:10;;;;;;;6.80;0.52;;;;;;;7.53;81.66;100693.75;5050747;28;20034;-66
2023/04/26 01:42:36;;;;;;;0.75;0.35;;;;;;;7.53;81.48;100703.72;5049834;28;20090;-66
2023/04/26 01:45:01;;;;;;;3.20;0.75;;;;;;;7.47;81.47;100700.44;5053442;28;20031;-66
2023/04/26 01:47:47;;;;;;;0.20;0.20;;;;;;;7.43;81.60;100706.81;5047503;28;20070;-66
2023/04/26 01:50:12;;;;;;;0.60;0.50;;;;;;;7.32;82.24;100703.00;5052429;28;20037;-67
2023/04/26 01:52:38;;;;;;;0.30;0.30;;;;;;;7.42;82.18;100702.56;5048161;28;20550;-66
2023/04/26 01:55:04;;;;;;;0.38;0.30;;;;;;;7.41;81.28;100706.34;5055222;28;20025;-66
2023/04/26 01:57:30;;;;;;;10.20;0.63;;;;;;;7.27;82.73;100703.97;5048878;28;20124;-65
2023/04/26 01:59:55;;;;;;;0.43;0.43;;;;;;;7.37;81.78;100703.56;5049259;28;20037;-67
2023/04/26 02:02:21;;;;;;;0.63;0.50;;;;;;;7.34;82.10;100703.44;5046448;28;20116;-66
2023/04/26 02:04:46;;;;;;;0.30;0.30;;;;;;;7.25;82.03;100700.84;5053824;28;20037;-66
2023/04/26 02:07:12;;;;;;;0.50;0.40;;;;;;;7.35;81.98;100694.28;5057783;28;20033;-66
2023/04/26 02:09:45;;;;;;;0.82;0.45;;;;;;;7.26;81.85;100694.38;5058377;28;20051;-66
2023/04/26 02:12:10;;;;;;;1.60;0.65;;;;;;;7.30;82.25;100700.63;5061633;28;20055;-65
2023/04/26 02:14:36;;;;;;;0.25;0.25;;;;;;;7.27;82.36;100706.66;5051483;28;20398;-66
2023/04/26 02:17:03;;;;;;;1.45;0.68;;;;;;;7.39;81.51;100692.50;5051739;28;20029;-67
2023/04/26 02:19:28;;;;;;;1.10;0.63;;;;;;;7.41;81.45;100695.66;5038134;28;20028;-66
2023/04/26 02:21:56;;;;;;;0.32;0.32;;;;;;;7.30;81.27;100684.56;5065315;28;20047;-67
2023/04/26 02:24:22;;;;;;;0.43;0.43;;;;;;;7.37;81.65;100700.09;5058415;28;20034;-67
2023/04/26 02:26:48;;;;;;;0.90;0.60;;;;;;;7.34;81.91;100706.13;5052824;28;20418;-66
2023/04/26 02:29:14;;;;;;;4.55;0.82;;;;;;;7.42;81.87;100710.59;5065094;28;20044;-66
2023/04/26 02:31:39;;;;;;;1.15;0.80;;;;;;;7.24;82.84;100718.81;5071092;28;20028;-66
2023/04/26 02:34:05;;;;;;;0.35;0.35;;;;;;;7.30;82.86;100730.88;5070304;28;20033;-66
2023/04/26 02:36:31;;;;;;;0.50;0.50;;;;;;;7.40;83.10;100723.53;5068345;28;20039;-66
2023/04/26 02:38:58;;;;;;;1.50;0.43;;;;;;;7.41;83.21;100728.56;5073786;28;20060;-66
2023/04/26 02:41:26;;;;;;;0.30;0.30;;;;;;;7.56;83.21;100732.50;5070087;28;20418;-67
2023/04/26 02:43:52;;;;;;;0.63;0.55;;;;;;;7.49;83.77;100724.25;5057750;28;20108;-66
2023/04/26 02:46:17;;;;;;;1.38;0.52;;;;;;;7.43;84.80;100723.66;5054868;28;20057;-67
2023/04/26 02:48:43;;;;;;;0.10;0.10;;;;;;;7.43;84.93;100715.63;5050684;28;20039;-67
2023/04/26 02:51:08;;;;;;;0.38;0.38;;;;;;;7.39;85.96;100716.63;5045339;28;20471;-66
2023/04/26 02:53:34;;;;;;;0.28;0.28;;;;;;;7.25;86.42;100731.09;5058742;28;20032;-67
2023/04/26 02:56:00;;;;;;;0.55;0.40;;;;;;;7.26;87.11;100719.25;5046555;28;20094;-66
2023/04/26 02:58:27;;;;;;;0.35;0.35;;;;;;;7.27;86.99;100718.16;5047230;28;20033;-66
2023/04/26 03:00:57;;;;;;;0.50;0.50;;;;;;;7.29;87.14;100712.47;5044014;28;20131;-67
2023/04/26 03:03:23;;;;;;;0.47;0.47;;;;;;;7.48;86.16;100714.63;5059527;28;20029;-66
2023/04/26 03:05:48;;;;;;;0.50;0.50;;;;;;;7.32;86.85;100704.56;5062546;28;20025;-66
2023/04/26 03:08:14;;;;;;;0.30;0.30;;;;;;;7.23;87.54;100711.91;5047684;28;20021;-66
2023/04/26 03:10:40;;;;;;;0.50;0.50;;;;;;;7.20;88.23;100711.78;5033308;28;20025;-66
2023/04/26 03:13:06;;;;;;;0.20;0.20;;;;;;;7.13;88.09;100701.59;5048955;28;20402;-67
2023/04/26 03:15:31;;;;;;;0.32;0.32;;;;;;;7.17;87.24;100705.19;5048216;28;20020;-66
2023/04/26 03:17:58;;;;;;;0.30;0.30;;;;;;;7.13;88.18;100709.63;5057141;28;20068;-67
2023/04/26 03:20:24;;;;;;;1.00;0.82;;;;;;;7.07;88.21;100707.47;5030873;28;20441;-66
2023/04/26 03:22:50;;;;;;;0.88;0.73;;;;;;;7.03;87.78;100718.06;5046809;28;20143;-65
2023/04/26 03:25:16;;;;;;;0.60;0.45;;;;;;;6.96;88.37;100706.31;5049136;28;20094;-66
2023/04/26 03:27:42;;;;;;;0.28;0.28;;;;;;;6.91;88.77;100709.97;5050668;28;20037;-67
2023/04/26 03:30:30;;;;;;;2.20;0.68;;;;;;;6.95;88.37;100708.22;5032429;28;20059;-66
2023/04/26 03:32:56;;;;;;;0.40;0.40;;;;;;;6.97;88.32;100719.38;4965858;28;20074;-66
2023/04/26 03:35:21;;;;;;;1.00;0.95;;;;;;;7.14;87.09;100718.47;4970465;28;20494;-66
2023/04/26 03:37:48;;;;;;;0.35;0.35;;;;;;;7.15;87.23;100706.63;4952814;28;20038;-66
2023/04/26 03:40:16;;;;;;;0.20;0.20;;;;;;;7.01;87.05;100704.22;4953997;28;20065;-65
2023/04/26 03:42:41;;;;;;;0.95;0.40;;;;;;;6.89;87.94;100706.84;4967567;28;20070;-66
2023/04/26 03:45:07;;;;;;;0.43;0.43;;;;;;;6.87;89.00;100706.41;4940186;28;20098;-66
2023/04/26 03:47:34;;;;;;;0.20;0.20;;;;;;;7.06;87.62;100711.28;4971585;28;20765;-65
2023/04/26 03:50:00;;;;;;;0.47;0.47;;;;;;;6.99;87.99;100703.78;4949640;28;20042;-66
2023/04/26 03:52:25;;;;;;;2.10;0.75;;;;;;;6.95;89.00;100705.53;4967356;28;20034;-66
2023/04/26 03:54:51;;;;;;;0.80;0.80;;;;;;;7.01;88.26;100714.94;4945447;28;20037;-66
2023/04/26 03:57:16;;;;;;;0.52;0.50;;;;;;;7.08;88.18;100711.75;4935427;28;20034;-66
2023/04/26 03:59:42;;;;;;;2.80;0.70;;;;;;;7.06;88.23;100708.59;4959652;28;20064;-66
2023/04/26 04:02:07;;;;;;;0.73;0.73;;;;;;;6.97;88.80;100706.00;4943161;28;20104;-66
2023/04/26 04:04:33;;;;;;;0.68;0.68;;;;;;;6.92;88.64;100716.13;4943049;28;20047;-66
2023/04/26 04:06:58;;;;;;;0.38;0.38;;;;;;;6.91;88.99;100707.31;4948035;28;20070;-65
2023/04/26 04:09:24;;;;;;;0.60;0.60;;;;;;;6.82;89.23;100722.66;4958480;28;20037;-66
2023/04/26 04:11:58;;;;;;;0.35;0.35;;;;;;;6.85;88.54;100713.97;5044516;28;20032;-66
2023/04/26 04:14:25;;;;;;;0.90;0.52;;;;;;;6.83;88.73;100715.44;5046581;28;20627;-66
2023/04/26 04:16:50;;;;;;;2.63;0.45;;;;;;;6.83;88.53;100718.09;5045731;28;20033;-66
2023/04/26 04:19:16;;;;;;;0.60;0.43;;;;;;;6.98;87.96;100720.97;5059962;28;20036;-66
2023/04/26 04:21:42;;;;;;;0.40;0.30;;;;;;;6.85;88.22;100726.59;5050464;28;20171;-66
2023/04/26 04:24:07;;;;;;;0.70;0.70;;;;;;;6.85;88.22;100724.66;5041548;28;20064;-66
2023/04/26 04:26:33;;;;;;;0.55;0.20;;;;;;;6.81;88.38;100721.13;5045483;28;20588;-66
2023/04/26 04:29:07;;;;;;;0.55;0.45;;;;;;;7.02;86.98;100721.88;5044022;28;20070;-66
2023/04/26 04:31:34;;;;;;;0.60;0.60;;;;;;;6.79;88.16;100722.53;5040592;28;20033;-68
2023/04/26 04:34:00;;;;;;;0.20;0.20;;;;;;;6.71;88.60;100724.19;5056603;28;20120;-65
2023/04/26 04:36:25;;;;;;;0.65;0.52;;;;;;;6.82;88.58;100724.56;5060546;28;20626;-66
2023/04/26 04:38:52;;;;;;;0.25;0.25;;;;;;;6.76;88.23;100734.69;5035814;28;20048;-66
2023/04/26 04:41:21;;;;;;;0.40;0.40;;;;;;;7.04;86.71;100734.91;5050855;28;20556;-66
2023/04/26 04:43:46;;;;;;;0.38;0.38;;;;;;;6.79;88.42;100739.38;5046934;28;20036;-66
2023/04/26 04:46:12;;;;;;;0.28;0.28;;;;;;;6.86;87.92;100741.53;5045968;28;20033;-67
2023/04/26 04:48:38;;;;;;;0.35;0.35;;;;;;;6.73;88.70;100745.25;5045858;28;20055;-65
2023/04/26 04:51:03;;;;;;;2.17;1.05;;;;;;;6.89;88.45;100756.94;5050417;28;20089;-66
2023/04/26 04:53:29;;;;;;;0.30;0.30;;;;;;;6.90;88.19;100747.78;5040541;28;20033;-65
2023/04/26 04:55:55;;;;;;;0.68;0.68;;;;;;;6.92;88.56;100745.56;5046174;28;20850;-66
2023/04/26 04:58:21;;;;;;;0.57;0.57;;;;;;;7.11;87.50;100760.06;5043852;28;20531;-66
2023/04/26 05:00:47;;;;;;;0.73;0.40;;;;;;;6.98;88.75;100760.31;5035744;28;20049;-66
2023/04/26 05:03:18;;;;;;;;;;;;;;;6.97;89.28;100756.84;5043368;28;20036;-66
2023/04/26 05:05:44;;;;;;;0.63;0.45;;;;;;;6.91;89.04;100760.84;5043432;28;20304;-66
2023/04/26 05:08:10;;;;;;;1.38;0.63;;;;;;;7.19;87.97;100761.09;5016148;28;20120;-66
2023/04/26 05:10:36;;;;;;;0.93;0.77;;;;;;;7.23;87.38;100754.75;5028402;28;20439;-66
2023/04/26 05:13:01;;;;;;;0.80;0.63;;;;;;;7.16;87.25;100751.81;5042166;28;20041;-66
2023/04/26 05:15:28;;;;;;;0.43;0.43;;;;;;;7.07;88.24;100743.06;5045515;28;20028;-66
2023/04/26 05:17:54;;;;;;;0.30;0.30;;;;;;;7.09;88.48;100750.78;5040512;28;20599;-66
2023/04/26 05:20:21;;;;;;;0.45;0.40;;;;;;;7.10;88.71;100749.69;5040130;28;20040;-67
2023/04/26 05:22:48;;;;;;;0.35;0.35;;;;;;;7.24;88.63;100750.94;5042197;28;20029;-66
2023/04/26 05:25:13;;;;;;;1.00;0.47;;;;;;;7.26;88.87;100754.06;5040751;28;20048;-65
2023/04/26 05:27:40;;;;;;;0.60;0.60;;;;;;;7.32;89.04;100752.75;5047119;28;20032;-66
2023/04/26 05:30:18;;;;;;;0.70;0.70;;;;;;;7.43;88.81;100752.34;5020786;28;20032;-67
2023/04/26 05:32:49;;;;;;;0.95;0.60;;;;;;;7.46;88.56;100751.69;5054178;28;20032;-66
2023/04/26 05:35:47;;;;;;;1.75;0.90;;;;;;;7.61;87.63;100751.03;5038529;28;20048;-64
2023/04/26 05:38:15;;;;;;;0.55;0.47;;;;;;;7.64;87.61;100753.84;5045946;28;20036;-64
2023/04/26 05:40:41;;;;;;;0.30;0.30;;;;;;;7.65;87.42;100760.78;5047288;28;20041;-65
2023/04/26 05:43:09;;;;;;;0.40;0.40;;;;;;;7.79;86.81;100761.25;5031106;28;20489;-65
2023/04/26 05:45:36;;;;;;;1.25;0.73;;;;;;;7.70;86.92;100765.16;5034087;28;20021;-65
2023/04/26 05:48:02;;;;;;;0.50;0.50;;;;;;;7.70;86.98;100767.81;5037346;28;20086;-64
2023/04/26 05:50:27;;;;;;;1.48;0.82;;;;;;;7.69;86.76;100768.91;5033050;28;20063;-66
2023/04/26 05:52:53;;;;;;;8.07;0.68;;;;;;;7.66;87.18;100773.06;5036884;28;20403;-66
2023/04/26 05:55:21;;;;;;;0.30;0.30;;;;;;;7.87;87.33;100778.34;5031613;28;20021;-65
2023/04/26 05:57:47;;;;;;;1.20;0.98;;;;;;;8.30;85.89;100773.28;5042786;28;20021;-66
2023/04/26 06:00:14;;;;;;;1.20;0.63;;;;;;;8.37;85.60;100783.41;5049678;28;20048;-65
2023/04/26 06:02:40;;;;;;;0.82;0.73;;;;;;;8.49;85.23;100773.47;5046419;28;20033;-65
2023/04/26 06:05:10;;;;;;;1.38;1.27;;;;;;;8.55;85.08;100788.22;5057300;28;20116;-65
2023/04/26 06:07:36;;;;;;;0.68;0.68;;;;;;;8.78;84.26;100785.84;5048252;28;20111;-66
2023/04/26 06:10:02;;;;;;;0.40;0.40;;;;;;;9.02;83.92;100780.38;5051847;28;20052;-66
2023/04/26 06:12:28;;;;;;;0.93;0.65;;;;;;;9.16;83.80;100783.47;5051553;28;20041;-65
2023/04/26 06:14:54;;;;;;;0.50;0.32;;;;;;;9.36;82.81;100776.34;5046855;28;20132;-65
2023/04/26 06:17:24;;;;;;;0.30;0.30;;;;;;;9.59;81.56;100770.06;5064997;28;20473;-65
2023/04/26 06:19:49;;;;;;;0.63;0.63;;;;;;;10.01;78.50;100773.81;5046890;28;20036;-65
2023/04/26 06:22:15;;;;;;;0.57;0.40;;;;;;;9.75;78.40;100784.31;5047333;28;20037;-65
2023/04/26 06:24:40;;;;;;;1.33;1.13;;;;;;;9.76;77.80;100771.63;5030017;28;20104;-66
2023/04/26 06:27:06;;;;;;;1.30;0.63;;;;;;;9.82;77.62;100781.03;5047111;28;20397;-65
2023/04/26 06:29:32;;;;;;;2.53;1.08;;;;;;;10.01;76.38;100773.81;5043653;28;20519;-66
2023/04/26 06:31:58;;;;;;;1.80;0.70;;;;;;;10.10;76.23;100779.06;5070858;28;20489;-65
2023/04/26 06:34:24;;;;;;;0.95;0.57;;;;;;;10.18;75.96;100778.09;5058973;28;20029;-65
2023/04/26 06:36:50;;;;;;;0.40;0.40;;;;;;;10.19;76.00;100778.88;5032489;28;20103;-65
2023/04/26 06:39:16;;;;;;;1.05;0.80;;;;;;;10.52;75.04;100782.75;5030779;28;20021;-66
2023/04/26 06:41:42;;;;;;;0.85;0.60;;;;;;;10.59;72.97;100784.81;5032652;28;20021;-65
2023/04/26 06:44:09;;;;;;;1.35;0.88;;;;;;;10.48;73.62;100776.50;5063215;28;20183;-66
2023/04/26 06:46:38;;;;;;;0.52;0.52;;;;;;;10.51;73.74;100783.88;5042451;28;20032;-65
2023/04/26 06:49:07;;;;;;;1.38;0.50;;;;;;;10.63;73.52;100780.28;5043543;28;20112;-65
2023/04/26 06:51:32;;;;;;;1.73;0.65;;;;;;;10.83;73.78;100790.75;5062507;28;20183;-65
2023/04/26 06:53:59;;;;;;;4.60;0.60;;;;;;;10.86;73.20;100784.63;5046688;28;20541;-65
2023/04/26 06:56:25;;;;;;;1.48;0.65;;;;;;;11.04;72.50;100792.31;5043494;28;20044;-66
2023/04/26 06:59:02;;;;;;;0.60;0.52;;;;;;;11.06;70.92;100785.44;5045985;28;20035;-66
2023/04/26 07:01:28;;;;;;;1.60;0.77;;;;;;;10.89;70.68;100789.34;5041478;28;20509;-66
2023/04/26 07:03:55;;;;;;;1.52;1.02;;;;;;;11.11;69.70;100782.44;5043213;28;20044;-66
2023/04/26 07:06:22;;;;;;;1.25;1.15;;;;;;;11.24;69.45;100780.41;5041745;28;20047;-66
2023/04/26 07:08:47;;;;;;;2.20;0.82;;;;;;;11.40;68.86;100784.56;5039821;28;20029;-65
2023/04/26 07:11:13;;;;;;;0.38;0.35;;;;;;;11.61;69.05;100786.91;5053779;28;20040;-65
2023/04/26 07:13:38;;;;;;;0.60;0.60;;;;;;;11.84;68.40;100782.31;5043400;28;20024;-66
2023/04/26 07:16:03;;;;;;;0.95;0.70;;;;;;;12.07;66.51;100788.50;5052898;28;20036;-65
2023/04/26 07:18:29;;;;;;;1.25;1.00;;;;;;;12.18;65.49;100789.44;5044358;28;20041;-65
2023/04/26 07:20:54;;;;;;;0.55;0.45;;;;;;;12.21;65.44;100791.44;5040715;28;20040;-64
2023/04/26 07:23:20;;;;;;;0.93;0.93;;;;;;;12.11;66.08;100794.72;5048750;28;20079;-65
2023/04/26 07:25:45;;;;;;;0.32;0.32;;;;;;;12.31;65.81;100795.44;5044140;28;20025;-64
2023/04/26 07:28:11;;;;;;;0.77;0.60;;;;;;;12.46;63.44;100792.59;5046483;28;20033;-66
2023/04/26 07:30:36;;;;;;;2.03;0.63;;;;;;;12.33;61.42;100803.97;5057043;28;20127;-65
2023/04/26 07:33:01;;;;;;;1.15;0.45;;;;;;;11.90;64.24;100793.59;5048879;28;20512;-66
2023/04/26 07:35:27;;;;;;;1.05;0.60;;;;;;;11.80;64.08;100797.66;5043596;28;20478;-65
2023/04/26 07:37:52;;;;;;;0.35;0.35;;;;;;;11.75;64.85;100798.72;5041011;28;20037;-64
2023/04/26 07:40:18;;;;;;;4.85;0.55;;;;;;;11.76;64.54;100796.81;5036864;28;20051;-66
2023/04/26 07:42:44;;;;;;;0.40;0.32;;;;;;;11.76;63.72;100792.22;5053943;28;20040;-65
2023/04/26 07:45:10;;;;;;;0.38;0.38;;;;;;;11.96;64.99;100801.03;5043392;28;20114;-66
2023/04/26 07:47:35;;;;;;;0.45;0.43;;;;;;;11.97;64.81;100794.50;5048897;28;20076;-64
2023/04/26 07:50:01;;;;;;;0.30;0.30;;;;;;;12.11;63.66;100799.34;5043319;28;20110;-65
2023/04/26 07:52:26;;;;;;;1.70;1.17;;;;;;;12.15;62.35;100800.97;5047281;28;20049;-65
2023/04/26 07:54:52;;;;;;;1.33;0.50;;;;;;;12.00;60.91;100801.84;5057661;28;20040;-65
2023/04/26 07:57:17;;;;;;;0.70;0.25;;;;;;;11.90;60.93;100805.19;5056608;28;20049;-64
2023/04/26 07:59:43;;;;;;;8.75;0.57;;;;;;;11.91;61.55;100811.34;5039896;28;20421;-65
2023/04/26 08:02:08;;;;;;;0.88;0.50;;;;;;;12.10;62.40;100800.50;5032858;28;20046;-65
2023/04/26 08:04:34;;;;;;;2.30;0.57;;;;;;;12.23;63.02;100805.31;5035559;28;20506;-64
2023/04/26 08:07:03;;;;;;;0.38;0.38;;;;;;;12.36;62.52;100811.31;5033569;28;20032;-65
2023/04/26 08:09:29;;;;;;;0.43;0.43;;;;;;;12.74;59.06;100807.66;5044997;28;20493;-66
2023/04/26 08:11:55;;;;;;;0.30;0.30;;;;;;;12.80;58.00;100808.88;5053218;28;20072;-65
2023/04/26 08:14:21;;;;;;;0.43;0.30;;;;;;;12.84;57.38;100813.19;5044462;28;20107;-65
2023/04/26 08:16:46;;;;;;;0.20;0.20;;;;;;;12.83;55.63;100817.03;5061870;28;20469;-66
2023/04/26 08:19:12;;;;;;;0.17;0.17;;;;;;;12.76;55.01;100810.75;5047925;28;20052;-65
2023/04/26 08:21:37;;;;;;;1.77;0.47;;;;;;;12.49;56.25;100824.25;5048988;28;20033;-65
2023/04/26 08:24:03;;;;;;;0.20;0.20;;;;;;;12.38;55.88;100828.72;5047138;28;20044;-65
2023/04/26 08:26:28;;;;;;;0.22;0.22;;;;;;;12.04;57.74;100848.59;5046693;28;20040;-65
2023/04/26 08:28:54;;;;;;;0.38;0.30;;;;;;;11.77;64.15;100865.81;5049096;28;20037;-64
2023/04/26 08:31:21;;;;;;;0.28;0.28;;;;;;;11.16;68.42;100873.03;5041942;28;20401;-66
2023/04/26 08:33:47;;;;;;;0.20;0.20;;;;;;;10.56;72.22;100866.28;5036858;28;20034;-65
2023/04/26 08:36:12;;;;;;;0.52;0.45;;;;;;;10.49;74.06;100850.75;5044051;28;20083;-65
2023/04/26 08:38:38;;;;;;;0.32;0.32;;;;;;;10.45;76.40;100847.19;5041780;28;20159;-64
2023/04/26 08:41:04;;;;;;;0.10;0.10;;;;;;;10.45;77.11;100851.81;5054703;28;20094;-67
2023/04/26 08:43:29;;;;;;;0.10;0.10;;;;;;;10.59;78.01;100852.13;5048618;28;20032;-66
2023/04/26 08:45:58;;;;;;;1.85;0.25;;;;;;;10.76;77.07;100851.78;5044498;28;20392;-65
2023/04/26 08:48:26;;;;;;;1.35;0.30;;;;;;;10.84;78.10;100848.88;5053857;28;20039;-66
2023/04/26 08:50:53;;;;;;;0.30;0.30;;;;;;;11.04;78.09;100854.28;5038527;28;20057;-66
2023/04/26 08:53:18;;;;;;;0.47;0.47;;;;;;;11.34;78.13;100852.63;5042397;28;20028;-65
2023/04/26 08:55:48;;;;;;;0.40;0.40;;;;;;;11.69;76.33;100854.13;5042377;28;20038;-64
2023/04/26 08:58:14;;;;;;;0.73;0.43;;;;;;;11.78;75.79;100856.59;5045708;28;20037;-65
2023/04/26 09:00:42;;;;;;;0.30;0.30;;;;;;;11.85;74.34;100851.31;5046996;28;20033;-64
2023/04/26 09:03:08;;;;;;;0.47;0.47;;;;;;;11.94;73.51;100853.81;5046630;28;20041;-65
2023/04/26 09:05:33;;;;;;;0.40;0.40;;;;;;;12.08;72.13;100846.72;5034805;28;20691;-65
2023/04/26 09:08:01;;;;;;;0.98;0.60;;;;;;;12.27;74.13;100838.56;5028831;28;20552;-65
2023/04/26 09:10:27;;;;;;;0.50;0.50;;;;;;;12.75;73.53;100853.22;5033515;28;20073;-65
2023/04/26 09:12:55;;;;;;;0.15;0.15;;;;;;;13.15;70.80;100844.50;5029848;28;20038;-64
2023/04/26 09:15:22;;;;;;;0.50;0.50;;;;;;;13.55;68.76;100845.41;5039081;28;20033;-65
2023/04/26 09:17:51;;;;;;;0.88;0.40;;;;;;;14.00;65.38;100852.44;5035022;28;20561;-65
2023/04/26 09:20:17;;;;;;;0.75;0.60;;;;;;;14.28;63.56;100849.25;5032674;28;20064;-65
2023/04/26 09:22:42;;;;;;;0.68;0.65;;;;;;;14.38;60.96;100852.03;5029629;28;20029;-65
2023/04/26 09:25:08;;;;;;;0.30;0.30;;;;;;;14.63;60.25;100851.44;5026808;28;20042;-64
2023/04/26 09:27:34;;;;;;;0.32;0.30;;;;;;;14.81;58.98;100850.41;5049107;28;20069;-66
2023/04/26 09:30:09;;;;;;;0.40;0.35;;;;;;;14.89;58.30;100860.13;5029473;28;20569;-65
2023/04/26 09:32:45;;;;;;;1.67;0.65;;;;;;;14.79;57.11;100855.41;5033032;28;20037;-65
2023/04/26 09:35:28;;;;;;;0.40;0.40;;;;;;;14.44;57.87;100858.66;5038403;28;20037;-66
2023/04/26 09:37:58;;;;;;;0.63;0.45;;;;;;;14.43;56.50;100859.03;5036966;28;20091;-64
2023/04/26 09:40:24;;;;;;;0.30;0.30;;;;;;;14.16;57.92;100855.69;5036417;28;20030;-65
2023/04/26 09:43:01;;;;;;;0.55;0.47;;;;;;;14.27;56.92;100851.19;5041456;28;20028;-65
2023/04/26 09:45:30;;;;;;;0.40;0.40;;;;;;;14.61;55.26;100845.63;5032543;28;20026;-65
2023/04/26 09:48:15;;;;;;;0.32;0.32;;;;;;;14.43;55.29;100849.00;5041719;28;20037;-66
2023/04/26 09:50:43;;;;;;;2.38;0.50;;;;;;;14.38;55.37;100853.97;5037546;28;20041;-64
2023/04/26 09:53:09;;;;;;;0.32;0.32;;;;;;;14.43;55.64;100849.00;5059915;28;20525;-65
2023/04/26 09:55:34;;;;;;;0.20;0.20;;;;;;;14.62;55.32;100850.66;5047415;28;20037;-65
2023/04/26 09:58:07;;;;;;;0.20;0.20;;;;;;;15.06;55.46;100845.13;5050146;28;20033;-65
2023/04/26 10:00:33;;;;;;;0.40;0.40;;;;;;;15.49;53.70;100846.88;5052583;28;20392;-65
2023/04/26 10:02:59;;;;;;;0.30;0.30;;;;;;;15.62;52.57;100839.94;5054091;28;20175;-65
2023/04/26 10:05:25;;;;;;;0.10;0.10;;;;;;;15.99;52.10;100850.50;5042400;28;20016;-66
2023/04/26 10:07:50;;;;;;;0.10;0.10;;;;;;;16.04;49.78;100841.97;5047099;28;20112;-65
2023/04/26 10:10:17;;;;;;;0.15;0.15;;;;;;;16.11;49.13;100855.56;5048691;28;20128;-65
2023/04/26 10:12:43;;;;;;;0.20;0.20;;;;;;;16.07;46.67;100860.22;5051349;28;20469;-65
2023/04/26 10:15:10;;;;;;;1.33;0.05;;;;;;;16.32;46.92;100846.66;5043803;28;20031;-65
2023/04/26 10:17:37;;;;;;;0.10;0.10;;;;;;;16.41;45.64;100855.19;5048969;28;20110;-65
2023/04/26 10:20:07;;;;;;;0.32;0.20;;;;;;;16.68;42.95;100834.63;5035153;28;20088;-65
2023/04/26 10:22:44;;;;;;;0.13;0.10;;;;;;;16.76;43.15;100845.06;5047797;28;20048;-65
2023/04/26 10:25:09;;;;;;;0.03;0.03;;;;;;;16.74;43.23;100843.94;5036468;28;20057;-65
2023/04/26 10:27:44;;;;;;;0.10;0.10;;;;;;;16.89;43.97;100845.44;5047351;28;20092;-65
2023/04/26 10:30:12;;;;;;;1.40;0.08;;;;;;;16.92;42.94;100839.22;5051109;28;20045;-67
2023/04/26 10:32:56;;;;;;;0.17;0.10;;;;;;;16.87;42.79;100839.63;5039190;28;20458;-66
2023/04/26 10:35:26;;;;;;;0.85;0.10;;;;;;;16.88;42.85;100860.19;5033828;28;20117;-65
2023/04/26 10:38:01;;;;;;;0.15;0.15;;;;;;;16.26;45.42;100859.84;5046688;28;20437;-66
2023/04/26 10:40:36;;;;;;;0.00;0.00;;;;;;;15.79;47.20;100863.69;5033263;28;20061;-65
2023/04/26 10:43:07;;;;;;;0.08;0.00;;;;;;;15.35;48.86;100877.44;5044112;28;20033;-65
2023/04/26 10:45:33;;;;;;;0.20;0.20;;;;;;;14.78;50.10;100861.22;5045145;28;20132;-64
2023/04/26 10:48:31;;;;;;;0.13;0.03;;;;;;;14.27;50.94;100862.00;5042111;28;20156;-65
2023/04/26 10:51:00;;;;;;;0.38;0.38;;;;;;;14.22;50.33;100870.47;5042235;28;21016;-64
2023/04/26 10:53:51;;;;;;;1.77;0.20;;;;;;;14.00;51.80;100865.19;5049702;28;20033;-64
2023/04/26 10:56:26;;;;;;;0.10;0.10;;;;;;;14.14;51.13;100868.84;5045110;28;20090;-63
2023/04/26 10:59:08;;;;;;;0.13;0.13;;;;;;;14.48;50.13;100857.94;5051259;28;20036;-64
2023/04/26 11:01:34;;;;;;;0.60;0.52;;;;;;;14.53;49.55;100863.00;5045928;28;20447;-65
2023/04/26 11:04:03;;;;;;;0.20;0.20;;;;;;;14.68;49.20;100865.44;5048611;28;20740;-64
2023/04/26 11:06:53;;;;;;;0.03;0.03;;;;;;;14.55;50.49;100858.75;5050634;28;20493;-64
2023/04/26 11:09:48;;;;;;;1.75;0.30;;;;;;;14.82;49.80;100862.03;5044737;28;20049;-65
2023/04/26 11:12:15;;;;;;;0.30;0.30;;;;;;;15.03;48.61;100865.66;5047690;28;20566;-66
2023/04/26 11:14:41;;;;;;;0.10;0.10;;;;;;;15.09;48.46;100868.78;5046889;28;20035;-65
2023/04/26 11:17:11;;;;;;;0.08;0.08;;;;;;;15.16;49.21;100863.38;5052029;28;20052;-67
2023/04/26 11:19:37;;;;;;;1.08;0.20;;;;;;;15.33;48.77;100868.91;5050014;28;20382;-65
2023/04/26 11:22:05;;;;;;;0.10;0.10;;;;;;;15.43;49.47;100866.66;5046932;28;20045;-64
2023/04/26 11:24:32;;;;;;;0.52;0.35;;;;;;;15.56;49.41;100865.94;5035973;28;20095;-64
2023/04/26 11:26:58;;;;;;;0.20;0.20;;;;;;;15.34;50.65;100872.41;5041717;28;20098;-65
2023/04/26 11:29:25;;;;;;;0.10;0.10;;;;;;;15.05;51.53;100878.84;5046695;28;20501;-66